Time;durP1;ratioP1;P1;durP2;ratioP2;P2;SDS_P1;SDS_P2;PMS_P1;PMS_P2;Temp;Humidity;BMP_temperature;BMP_pressure;BME280_temperature;BME280_humidity;BME280_pressure;Samples;Min_cycle;Max_cycle;Signal;HPM_P1;HPM_P2
2022/03/22 00:00:37;;;;;;;57.63;36.17;;;7.80;99.90;;;;;;6153989;23;20021;-78
2022/03/22 00:03:05;;;;;;;51.20;35.60;;;7.80;99.90;;;;;;6129964;23;20405;-78
2022/03/22 00:05:32;;;;;;;48.65;34.88;;;7.80;99.90;;;;;;6128886;23;20092;-78
2022/03/22 00:08:00;;;;;;;52.40;35.65;;;7.80;99.90;;;;;;6128916;23;20017;-78
2022/03/22 00:10:29;;;;;;;51.35;35.55;;;7.80;99.90;;;;;;6154314;23;20076;-78
2022/03/22 00:12:55;;;;;;;55.95;36.08;;;7.80;99.90;;;;;;6129280;23;20013;-78
2022/03/22 00:15:20;;;;;;;54.33;34.92;;;7.80;99.90;;;;;;6153711;23;20345;-78
2022/03/22 00:17:47;;;;;;;48.28;35.17;;;7.80;99.90;;;;;;6154575;23;20444;-78
2022/03/22 00:20:13;;;;;;;50.80;35.60;;;7.80;99.90;;;;;;6153845;23;20047;-78
2022/03/22 00:22:42;;;;;;;50.90;35.80;;;7.80;99.90;;;;;;6153620;23;20507;-78
2022/03/22 00:25:11;;;;;;;57.10;36.05;;;7.70;99.90;;;;;;6153624;23;20075;-79
2022/03/22 00:27:52;;;;;;;51.30;36.85;;;7.80;99.90;;;;;;6178739;23;20013;-79
2022/03/22 00:30:25;;;;;;;50.95;35.78;;;7.70;99.90;;;;;;6110257;23;20018;-79
2022/03/22 00:32:54;;;;;;;50.58;35.38;;;7.70;99.90;;;;;;6153552;23;20414;-79
2022/03/22 00:35:25;;;;;;;57.80;36.47;;;7.80;99.90;;;;;;6153434;23;20436;-79
2022/03/22 00:37:53;;;;;;;51.83;37.67;;;7.70;99.90;;;;;;6153884;23;20013;-79
2022/03/22 00:40:24;;;;;;;53.13;35.55;;;7.80;99.90;;;;;;6129089;23;20079;-79
2022/03/22 00:42:53;;;;;;;54.20;35.75;;;7.70;99.90;;;;;;6104145;23;20045;-79
2022/03/22 00:45:23;;;;;;;53.53;36.42;;;7.70;99.90;;;;;;6104945;23;20040;-79
2022/03/22 00:47:51;;;;;;;54.85;37.25;;;7.70;99.90;;;;;;6153242;23;20022;-79
2022/03/22 00:50:20;;;;;;;48.00;35.72;;;7.70;99.90;;;;;;6128956;23;20068;-79
2022/03/22 00:52:46;;;;;;;51.60;36.80;;;7.70;99.90;;;;;;6153419;23;20014;-79
2022/03/22 00:55:12;;;;;;;48.70;34.78;;;7.70;99.90;;;;;;6129256;23;20018;-78
2022/03/22 00:57:48;;;;;;;53.17;36.63;;;7.60;99.90;;;;;;6154313;23;20010;-77
2022/03/22 01:00:15;;;;;;;52.67;36.30;;;7.60;99.90;;;;;;6155213;23;20009;-78
2022/03/22 01:02:43;;;;;;;50.40;36.22;;;7.60;99.90;;;;;;6129075;23;20021;-76
2022/03/22 01:05:13;;;;;;;57.00;36.70;;;7.60;99.90;;;;;;6155024;23;20021;-76
2022/03/22 01:07:41;;;;;;;48.03;35.95;;;7.60;99.90;;;;;;6153169;23;20021;-76
2022/03/22 01:10:09;;;;;;;48.65;36.40;;;7.60;99.90;;;;;;6153442;23;20089;-76
2022/03/22 01:12:37;;;;;;;52.60;36.50;;;7.60;99.90;;;;;;6152954;23;20041;-76
2022/03/22 01:15:10;;;;;;;56.20;37.30;;;7.60;99.90;;;;;;6152291;23;20025;-75
2022/03/22 01:17:36;;;;;;;55.22;36.08;;;7.60;99.90;;;;;;6153278;23;20025;-75
2022/03/22 01:20:05;;;;;;;55.42;36.83;;;7.60;99.90;;;;;;6153793;23;20033;-76
2022/03/22 01:22:32;;;;;;;52.05;35.90;;;7.60;99.90;;;;;;6129089;23;20063;-76
2022/03/22 01:24:59;;;;;;;53.92;37.58;;;7.50;99.90;;;;;;6128755;23;20325;-77
2022/03/22 01:27:26;;;;;;;53.33;36.20;;;7.50;99.90;;;;;;6104509;23;20440;-77
2022/03/22 01:29:52;;;;;;;53.67;35.90;;;7.50;99.90;;;;;;6153230;23;20010;-77
2022/03/22 01:32:18;;;;;;;51.75;37.55;;;7.50;99.90;;;;;;6129226;23;20437;-76
2022/03/22 01:34:44;;;;;;;51.60;36.17;;;7.50;99.90;;;;;;6104444;23;20021;-77
2022/03/22 01:37:11;;;;;;;51.58;36.08;;;7.50;99.90;;;;;;6153214;23;20085;-77
2022/03/22 01:39:36;;;;;;;56.30;36.97;;;7.50;99.90;;;;;;6153306;23;20456;-77
2022/03/22 01:42:06;;;;;;;55.78;36.28;;;7.50;99.90;;;;;;6128501;23;20027;-76
2022/03/22 01:44:32;;;;;;;50.42;34.83;;;7.50;99.90;;;;;;6152597;23;20345;-76
2022/03/22 01:47:00;;;;;;;53.45;37.30;;;7.70;99.90;;;;;;6152926;23;20017;-76
2022/03/22 01:49:31;;;;;;;50.60;36.53;;;7.50;99.90;;;;;;6128693;23;20021;-77
2022/03/22 01:51:58;;;;;;;52.42;37.25;;;7.50;99.90;;;;;;6128639;23;20318;-77
2022/03/22 01:54:24;;;;;;;58.20;38.60;;;7.50;99.90;;;;;;6155171;23;20020;-77
2022/03/22 01:56:50;;;;;;;58.10;40.20;;;7.50;99.90;;;;;;6155323;23;20017;-77
2022/03/22 01:59:16;;;;;;;61.33;41.03;;;7.60;99.90;;;;;;6155198;23;20053;-78
2022/03/22 02:07:14;;;;;;;58.45;40.00;;;7.60;99.90;;;;;;6154965;23;20040;-78
2022/03/22 02:09:41;;;;;;;57.50;41.53;;;7.50;99.90;;;;;;6154811;23;20048;-78
2022/03/22 02:12:07;;;;;;;60.08;41.83;;;7.50;99.90;;;;;;6154855;23;20397;-78
2022/03/22 02:14:33;;;;;;;61.78;41.25;;;7.50;99.90;;;;;;6155026;23;20014;-78
2022/03/22 02:17:09;;;;;;;59.53;40.28;;;7.50;99.90;;;;;;6154701;23;20056;-78
2022/03/22 02:19:39;;;;;;;62.78;40.08;;;7.50;99.90;;;;;;6154786;23;20019;-78
2022/03/22 02:22:12;;;;;;;57.85;41.65;;;7.00;99.90;;;;;;6129920;23;20024;-77
2022/03/22 02:24:39;;;;;;;63.63;41.28;;;7.50;99.90;;;;;;6131067;23;20017;-78
2022/03/22 02:27:07;;;;;;;62.13;41.25;;;7.10;99.90;;;;;;6154829;23;20013;-78
2022/03/22 02:29:34;;;;;;;55.30;39.85;;;7.50;99.90;;;;;;6154989;23;20021;-78
2022/03/22 02:32:00;;;;;;;58.78;40.22;;;7.50;99.90;;;;;;6154659;23;20436;-78
2022/03/22 02:34:26;;;;;;;56.95;39.40;;;7.50;99.90;;;;;;6154820;23;20064;-78
2022/03/22 02:36:52;;;;;;;62.25;41.78;;;7.60;99.90;;;;;;6155016;23;20088;-77
2022/03/22 02:39:17;;;;;;;61.65;40.97;;;7.60;99.90;;;;;;6154270;23;20526;-77
2022/03/22 02:41:45;;;;;;;60.58;40.45;;;7.60;99.90;;;;;;6154479;23;20068;-77
2022/03/22 02:44:11;;;;;;;56.65;40.88;;;7.60;99.90;;;;;;6106036;23;20029;-77
2022/03/22 02:46:40;;;;;;;59.78;40.38;;;7.60;99.90;;;;;;6154637;23;20068;-77
2022/03/22 02:49:08;;;;;;;57.42;38.75;;;7.60;99.90;;;;;;6129927;23;20049;-77
2022/03/22 02:51:34;;;;;;;59.67;39.22;;;7.60;99.90;;;;;;6154535;23;20014;-77
2022/03/22 02:54:02;;;;;;;63.63;39.53;;;7.60;99.90;;;;;;6129732;23;20139;-77
2022/03/22 02:56:28;;;;;;;61.65;38.90;;;7.60;99.90;;;;;;6154390;23;20017;-77
2022/03/22 02:58:54;;;;;;;59.92;39.63;;;7.60;99.90;;;;;;6105755;23;20013;-77
2022/03/22 03:01:20;;;;;;;61.28;40.92;;;7.60;99.90;;;;;;6154438;23;20017;-77
2022/03/22 03:03:46;;;;;;;58.83;42.08;;;7.60;99.90;;;;;;6154931;23;20519;-77
2022/03/22 03:06:12;;;;;;;62.80;42.42;;;7.60;99.90;;;;;;6129533;23;20025;-77
2022/03/22 03:08:42;;;;;;;60.10;42.92;;;7.50;99.90;;;;;;6129549;23;20013;-78
2022/03/22 03:11:12;;;;;;;63.00;44.92;;;7.60;99.90;;;;;;6154348;23;20010;-78
2022/03/22 03:16:23;;;;;;;64.78;42.47;;;7.50;99.90;;;;;;6154216;23;20017;-78
2022/03/22 03:18:52;;;;;;;62.40;42.28;;;7.50;99.90;;;;;;6154244;23;20093;-78
2022/03/22 03:21:18;;;;;;;58.83;40.28;;;7.50;99.90;;;;;;6154130;23;20036;-77
2022/03/22 03:23:44;;;;;;;59.85;41.50;;;7.50;99.90;;;;;;6129687;23;20516;-78
2022/03/22 03:26:09;;;;;;;65.88;41.88;;;7.50;99.90;;;;;;6154286;23;20052;-78
2022/03/22 03:28:35;;;;;;;60.88;41.05;;;7.50;99.90;;;;;;6154369;23;20444;-78
2022/03/22 03:31:01;;;;;;;55.35;39.70;;;7.40;99.90;;;;;;6153672;23;20025;-78
2022/03/22 03:33:27;;;;;;;57.63;39.15;;;7.40;99.90;;;;;;6154268;23;20084;-78
2022/03/22 03:35:53;;;;;;;56.00;40.53;;;7.40;99.90;;;;;;6129662;23;20049;-78
2022/03/22 03:38:19;;;;;;;55.60;39.83;;;7.40;99.90;;;;;;6129668;23;20043;-78
2022/03/22 03:43:30;;;;;;;55.60;38.47;;;7.40;99.90;;;;;;6154228;23;20021;-78
2022/03/22 03:48:41;;;;;;;64.00;39.47;;;7.40;99.90;;;;;;6133153;23;20021;-78
2022/03/22 03:51:06;;;;;;;56.47;38.75;;;7.40;99.90;;;;;;6154140;23;20344;-78
2022/03/22 03:53:32;;;;;;;57.60;39.90;;;7.30;99.90;;;;;;6153820;23;20010;-78
2022/03/22 03:55:58;;;;;;;60.30;39.60;;;7.30;99.90;;;;;;6129370;23;20045;-78
2022/03/22 03:58:24;;;;;;;54.90;39.22;;;7.30;99.90;;;;;;6105158;23;20017;-76
2022/03/22 04:00:50;;;;;;;58.40;39.55;;;7.30;99.90;;;;;;6104740;23;20013;-76
2022/03/22 04:03:16;;;;;;;53.75;37.67;;;7.30;99.90;;;;;;6128989;23;20024;-76
2022/03/22 04:05:41;;;;;;;56.88;37.67;;;7.30;99.90;;;;;;6153908;23;20017;-76
2022/03/22 04:08:07;;;;;;;54.28;38.90;;;7.30;99.90;;;;;;6104789;23;20025;-76
2022/03/22 04:10:34;;;;;;;53.88;37.55;;;7.20;99.90;;;;;;6153632;23;20372;-76
2022/03/22 04:13:00;;;;;;;61.15;38.40;;;7.20;99.90;;;;;;6153956;23;20018;-77
2022/03/22 04:15:26;;;;;;;52.40;38.08;;;7.20;99.90;;;;;;6129251;23;20053;-78
2022/03/22 04:17:52;;;;;;;56.55;38.85;;;7.20;99.90;;;;;;6129345;23;20021;-80
2022/03/22 04:20:22;;;;;;;61.78;40.08;;;7.20;99.90;;;;;;6128751;23;20014;-80
2022/03/22 04:22:47;;;;;;;54.72;37.58;;;7.20;99.90;;;;;;6128959;23;20020;-80
2022/03/22 04:25:13;;;;;;;57.70;38.30;;;7.20;99.90;;;;;;6154354;23;20470;-78
2022/03/22 04:33:33;;;;;;;56.40;38.53;;;7.20;99.90;;;;;;6098277;23;20379;-78
2022/03/22 04:35:59;;;;;;;52.42;37.55;;;7.10;99.90;;;;;;6074525;23;20017;-78
2022/03/22 04:38:25;;;;;;;56.25;38.70;;;7.10;99.90;;;;;;6122492;23;20014;-78
2022/03/22 04:40:51;;;;;;;51.85;35.97;;;7.20;99.90;;;;;;6152900;23;20021;-78
2022/03/22 04:43:17;;;;;;;53.20;38.53;;;7.10;99.90;;;;;;6153761;23;20442;-78
2022/03/22 04:45:43;;;;;;;56.95;38.53;;;7.50;99.90;;;;;;6104671;23;20017;-78
2022/03/22 04:48:09;;;;;;;56.65;38.17;;;7.10;99.90;;;;;;6129084;23;20099;-78
2022/03/22 04:50:35;;;;;;;55.25;38.10;;;7.10;99.90;;;;;;6153353;23;20017;-78
2022/03/22 04:58:16;;;;;;;58.08;38.17;;;7.10;99.90;;;;;;6130118;23;20076;-78
2022/03/22 05:00:42;;;;;;;53.97;37.65;;;7.10;99.90;;;;;;6153453;23;20017;-78
2022/03/22 05:03:12;;;;;;;56.20;37.53;;;7.10;99.90;;;;;;6153489;23;20380;-78
2022/03/22 05:08:22;;;;;;;57.70;38.00;;;7.00;99.90;;;;;;6132233;23;20026;-78
2022/03/22 05:10:48;;;;;;;57.17;38.08;;;7.00;99.90;;;;;;6153512;23;20013;-79
2022/03/22 05:13:14;;;;;;;55.42;38.88;;;7.00;99.90;;;;;;6128804;23;20435;-78
2022/03/22 05:15:40;;;;;;;53.92;38.20;;;7.00;99.90;;;;;;6129005;23;20096;-78
2022/03/22 05:18:06;;;;;;;53.80;38.20;;;7.00;99.90;;;;;;6153553;23;20025;-78
2022/03/22 05:20:31;;;;;;;54.55;37.22;;;7.00;99.90;;;;;;6104501;23;20072;-78
2022/03/22 05:22:58;;;;;;;53.25;37.67;;;7.00;99.90;;;;;;6152561;23;20017;-78
2022/03/22 05:25:30;;;;;;;50.42;37.83;;;6.90;99.90;;;;;;6152857;23;20018;-78
2022/03/22 05:27:57;;;;;;;56.83;37.97;;;6.90;99.90;;;;;;6129756;23;20013;-78
2022/03/22 05:30:22;;;;;;;55.72;39.25;;;6.80;99.90;;;;;;6179503;23;20017;-78
2022/03/22 05:32:48;;;;;;;56.95;39.40;;;6.80;99.90;;;;;;6130928;23;20436;-76
2022/03/22 05:35:14;;;;;;;65.07;39.85;;;6.80;99.90;;;;;;6155162;23;20072;-76
2022/03/22 05:37:40;;;;;;;59.85;38.10;;;6.80;99.90;;;;;;6155377;23;20016;-77
2022/03/22 05:40:06;;;;;;;53.75;38.70;;;7.10;99.90;;;;;;6154896;23;20014;-78
2022/03/22 05:42:36;;;;;;;57.35;39.45;;;6.80;99.90;;;;;;6155545;23;20459;-78
2022/03/22 05:45:08;;;;;;;55.25;37.28;;;6.80;99.90;;;;;;6130855;23;20013;-77
2022/03/22 05:47:34;;;;;;;55.38;38.67;;;6.70;99.90;;;;;;6130852;23;20064;-78
2022/03/22 05:50:00;;;;;;;53.58;36.83;;;6.70;99.90;;;;;;6155153;23;20013;-78
2022/03/22 05:52:41;;;;;;;55.60;38.70;;;6.80;99.90;;;;;;6131114;23;20018;-78
2022/03/22 05:55:07;;;;;;;55.55;38.33;;;6.80;99.90;;;;;;6156838;23;20009;-78
2022/03/22 05:57:33;;;;;;;60.55;38.20;;;6.80;99.90;;;;;;6156679;23;20013;-79
2022/03/22 05:59:58;;;;;;;65.05;40.38;;;6.80;99.90;;;;;;6155159;23;20017;-78
2022/03/22 06:02:24;;;;;;;53.10;36.25;;;6.80;99.90;;;;;;6130727;23;20084;-78
2022/03/22 06:04:50;;;;;;;54.95;38.25;;;6.80;99.90;;;;;;6154976;23;20025;-78
2022/03/22 06:07:19;;;;;;;54.55;36.72;;;6.90;99.90;;;;;;6106247;23;20013;-78
2022/03/22 06:09:47;;;;;;;54.20;37.75;;;6.90;99.90;;;;;;6154769;23;20456;-78
2022/03/22 06:12:14;;;;;;;55.05;37.58;;;6.90;99.90;;;;;;6155067;23;20021;-78
2022/03/22 06:14:41;;;;;;;55.00;36.85;;;6.90;99.90;;;;;;6131179;23;20013;-80
2022/03/22 06:17:07;;;;;;;56.72;37.53;;;6.90;99.90;;;;;;6155229;23;20020;-80
2022/03/22 06:19:32;;;;;;;59.03;38.20;;;6.90;99.90;;;;;;6155631;23;20444;-80
2022/03/22 06:21:58;;;;;;;57.88;37.75;;;7.00;99.90;;;;;;6130103;23;20020;-80
2022/03/22 06:24:24;;;;;;;55.95;37.90;;;7.00;99.90;;;;;;6130813;23;20093;-81
2022/03/22 06:26:50;;;;;;;53.25;36.80;;;7.00;99.90;;;;;;6154972;23;20017;-81
2022/03/22 06:29:16;;;;;;;55.20;37.50;;;7.00;99.90;;;;;;6154904;23;20096;-82
2022/03/22 06:31:41;;;;;;;58.97;38.00;;;7.10;99.90;;;;;;6155176;23;20384;-79
2022/03/22 06:34:07;;;;;;;57.97;37.58;;;7.10;99.90;;;;;;6154583;23;20021;-80
2022/03/22 06:36:36;;;;;;;58.45;39.13;;;7.10;99.90;;;;;;6130356;23;20010;-82
2022/03/22 06:39:03;;;;;;;58.47;38.63;;;7.10;99.90;;;;;;6155381;23;20372;-79
2022/03/22 06:41:29;;;;;;;58.40;38.53;;;7.20;99.90;;;;;;6127433;23;20021;-80
2022/03/22 06:44:00;;;;;;;56.40;37.70;;;7.20;99.90;;;;;;6152440;23;20092;-85
2022/03/22 06:46:27;;;;;;;54.13;36.92;;;7.20;99.90;;;;;;6079362;23;20025;-76
2022/03/22 06:48:52;;;;;;;60.10;37.00;;;7.20;99.90;;;;;;6127296;23;20093;-76
2022/03/22 06:51:19;;;;;;;56.75;38.63;;;7.30;99.90;;;;;;6152050;23;20041;-76
2022/03/22 06:53:45;;;;;;;54.58;36.75;;;7.30;99.90;;;;;;6152239;23;20072;-76
2022/03/22 06:56:14;;;;;;;56.60;37.70;;;7.30;99.90;;;;;;6152131;23;20083;-79
2022/03/22 06:58:40;;;;;;;55.67;37.50;;;7.30;99.90;;;;;;6128728;23;20440;-81
2022/03/22 07:01:06;;;;;;;56.08;38.67;;;7.30;99.90;;;;;;6103010;23;20013;-82
2022/03/22 07:03:33;;;;;;;58.00;37.95;;;7.40;99.90;;;;;;6151622;23;20017;-81
2022/03/22 07:05:58;;;;;;;52.60;37.60;;;7.50;99.90;;;;;;6153029;23;20015;-81
2022/03/22 07:08:24;;;;;;;54.40;38.25;;;7.50;99.90;;;;;;6151751;23;20052;-81
2022/03/22 07:13:42;;;;;;;57.08;36.85;;;7.60;99.90;;;;;;6139774;23;20325;-81
2022/03/22 07:16:08;;;;;;;51.72;37.90;;;7.70;99.90;;;;;;6127176;23;20033;-81
2022/03/22 07:18:34;;;;;;;66.93;38.53;;;7.70;99.90;;;;;;6151476;23;20021;-81
2022/03/22 07:21:04;;;;;;;54.60;37.63;;;7.80;99.90;;;;;;6151391;23;20349;-80
2022/03/22 07:23:31;;;;;;;58.40;38.38;;;7.80;99.90;;;;;;6150773;23;20368;-81
2022/03/22 07:25:56;;;;;;;56.08;37.15;;;7.90;99.90;;;;;;6151324;23;20044;-80
2022/03/22 07:28:22;;;;;;;62.78;37.67;;;7.90;99.90;;;;;;6126876;23;20014;-81
2022/03/22 07:30:48;;;;;;;53.05;37.00;;;7.90;99.90;;;;;;6153389;23;20075;-77
2022/03/22 07:33:14;;;;;;;50.67;36.13;;;8.10;99.90;;;;;;6127040;23;20352;-77
2022/03/22 07:35:40;;;;;;;54.13;37.28;;;8.00;99.90;;;;;;6151657;23;20017;-77
2022/03/22 07:38:06;;;;;;;55.53;36.90;;;8.00;99.90;;;;;;6151038;23;20092;-74
2022/03/22 07:40:32;;;;;;;53.40;37.33;;;8.00;99.90;;;;;;6150337;23;20052;-73
2022/03/22 07:43:01;;;;;;;61.97;37.28;;;8.00;99.90;;;;;;6151206;23;20067;-74
2022/03/22 07:45:29;;;;;;;54.92;37.38;;;8.00;99.90;;;;;;6102284;23;20157;-73
2022/03/22 07:47:55;;;;;;;60.65;37.00;;;8.10;99.90;;;;;;6151475;23;20025;-74
2022/03/22 07:53:19;;;;;;;58.22;36.97;;;8.10;99.90;;;;;;6134076;23;20017;-74
2022/03/22 07:55:45;;;;;;;62.50;36.53;;;8.20;99.90;;;;;;6102442;23;20023;-75
2022/03/22 07:58:11;;;;;;;63.42;38.38;;;8.20;99.90;;;;;;6102416;23;20574;-75
2022/03/22 08:00:39;;;;;;;63.65;38.10;;;8.30;99.90;;;;;;6152639;23;20010;-75
2022/03/22 08:03:09;;;;;;;62.10;35.72;;;8.40;99.90;;;;;;6126755;23;20020;-75
2022/03/22 08:05:35;;;;;;;57.45;35.65;;;8.40;99.90;;;;;;6151131;23;20021;-75
2022/03/22 08:08:02;;;;;;;53.45;35.45;;;8.60;99.90;;;;;;6150284;23;20031;-74
2022/03/22 08:10:32;;;;;;;53.60;36.28;;;8.60;99.90;;;;;;6127153;23;20330;-74
2022/03/22 08:12:59;;;;;;;53.45;34.78;;;8.70;99.90;;;;;;6153184;23;20020;-73
2022/03/22 08:15:25;;;;;;;52.28;34.78;;;8.80;99.90;;;;;;6150905;23;20079;-73
2022/03/22 08:17:51;;;;;;;51.45;34.13;;;9.00;99.90;;;;;;6150913;23;20407;-75
2022/03/22 08:20:18;;;;;;;50.45;33.97;;;9.10;99.90;;;;;;6125066;23;20040;-74
2022/03/22 08:22:59;;;;;;;48.17;33.55;;;9.30;99.90;;;;;;6126809;23;20072;-74
2022/03/22 08:25:26;;;;;;;53.03;32.60;;;9.30;99.90;;;;;;6126470;23;20096;-73
2022/03/22 08:27:52;;;;;;;50.38;32.97;;;9.50;99.90;;;;;;6149829;23;20012;-74
2022/03/22 08:30:21;;;;;;;48.13;33.55;;;9.60;99.90;;;;;;6152689;23;20018;-74
2022/03/22 08:33:03;;;;;;;48.55;31.65;;;9.70;99.90;;;;;;6151061;23;20309;-74
2022/03/22 08:35:30;;;;;;;52.05;32.72;;;9.70;99.90;;;;;;6151021;23;20013;-73
2022/03/22 08:37:56;;;;;;;52.90;32.25;;;9.80;99.90;;;;;;6126326;23;20017;-78
2022/03/22 08:40:23;;;;;;;51.20;32.15;;;9.90;99.90;;;;;;6150619;23;20464;-77
2022/03/22 08:42:52;;;;;;;46.88;31.00;;;9.90;99.90;;;;;;6151144;23;20017;-78
2022/03/22 08:45:20;;;;;;;46.75;31.73;;;10.00;99.90;;;;;;6152478;23;20099;-78
2022/03/22 08:47:47;;;;;;;49.15;32.38;;;10.10;99.90;;;;;;6150757;23;20019;-78
2022/03/22 08:50:21;;;;;;;51.33;32.95;;;10.10;99.90;;;;;;6150649;23;20030;-77
2022/03/22 08:52:48;;;;;;;56.25;32.85;;;10.20;99.90;;;;;;6152277;23;20013;-79
2022/03/22 08:55:17;;;;;;;50.70;32.25;;;10.30;99.90;;;;;;6150978;23;20014;-78
2022/03/22 08:57:44;;;;;;;47.75;33.83;;;10.40;99.90;;;;;;6152466;23;20013;-77
2022/03/22 09:00:11;;;;;;;46.85;31.30;;;10.40;99.90;;;;;;6150698;23;20052;-79
2022/03/22 09:02:39;;;;;;;56.58;34.22;;;10.50;99.90;;;;;;6150994;23;20010;-78
2022/03/22 09:07:51;;;;;;;53.03;33.73;;;10.60;99.90;;;;;;6150849;23;20222;-78
2022/03/22 09:10:20;;;;;;;52.63;34.60;;;10.70;99.90;;;;;;6151187;23;20014;-74
2022/03/22 09:12:45;;;;;;;53.40;34.25;;;10.70;99.90;;;;;;6125988;23;20013;-79
2022/03/22 09:15:11;;;;;;;55.65;34.63;;;10.80;99.90;;;;;;6151195;23;20052;-72
2022/03/22 09:17:38;;;;;;;52.78;33.35;;;10.80;99.90;;;;;;6150741;23;20014;-76
2022/03/22 09:20:05;;;;;;;55.28;34.42;;;10.80;99.90;;;;;;6102492;23;20025;-75
2022/03/22 09:22:31;;;;;;;48.17;33.85;;;10.90;99.90;;;;;;6150940;23;20064;-75
2022/03/22 09:24:57;;;;;;;53.13;34.25;;;11.00;99.90;;;;;;6126849;23;20092;-75
2022/03/22 09:27:23;;;;;;;51.67;34.15;;;11.10;99.90;;;;;;6150969;23;20499;-75
2022/03/22 09:29:49;;;;;;;53.50;34.40;;;11.10;99.90;;;;;;6150367;23;20100;-75
2022/03/22 09:32:15;;;;;;;51.22;33.22;;;11.20;99.90;;;;;;6151920;23;20096;-75
2022/03/22 09:34:41;;;;;;;56.20;34.35;;;11.20;99.90;;;;;;6152463;23;20014;-75
2022/03/22 09:37:07;;;;;;;47.92;33.30;;;11.30;99.90;;;;;;6126136;23;20373;-72
2022/03/22 09:39:34;;;;;;;46.55;31.67;;;11.30;99.90;;;;;;6151036;23;20021;-73
2022/03/22 09:42:06;;;;;;;45.53;31.58;;;11.30;99.90;;;;;;6151199;23;20340;-73
2022/03/22 09:44:33;;;;;;;49.20;33.40;;;11.40;99.90;;;;;;6152460;23;20075;-74
2022/03/22 09:47:04;;;;;;;49.78;32.13;;;11.40;99.90;;;;;;6175834;23;20396;-74
2022/03/22 09:49:31;;;;;;;47.90;31.58;;;11.60;99.90;;;;;;6125890;23;20359;-73
2022/03/22 09:51:57;;;;;;;50.25;31.70;;;11.60;99.90;;;;;;6150652;23;20392;-72
2022/03/22 09:54:23;;;;;;;55.05;33.55;;;11.60;99.90;;;;;;6149760;23;20041;-73
2022/03/22 09:56:52;;;;;;;47.72;31.33;;;11.70;99.90;;;;;;6126134;23;20337;-75
2022/03/22 09:59:18;;;;;;;49.03;32.05;;;11.80;99.90;;;;;;6150436;23;20021;-72
2022/03/22 10:01:45;;;;;;;51.90;32.00;;;11.90;99.90;;;;;;6151358;23;20340;-73
2022/03/22 10:04:13;;;;;;;47.42;32.53;;;11.90;99.90;;;;;;6150564;23;20018;-72
2022/03/22 10:06:45;;;;;;;54.45;32.05;;;12.00;99.90;;;;;;6150388;23;20313;-73
2022/03/22 10:09:11;;;;;;;47.75;29.77;;;12.10;99.90;;;;;;6149911;23;20025;-73
2022/03/22 10:11:41;;;;;;;49.90;30.05;;;12.10;99.90;;;;;;6152198;23;20024;-72
2022/03/22 10:14:09;;;;;;;51.28;29.92;;;12.20;99.90;;;;;;6150544;23;20314;-73
2022/03/22 10:16:51;;;;;;;54.72;31.52;;;12.10;99.90;;;;;;6153018;23;20017;-72
2022/03/22 10:19:28;;;;;;;56.30;31.55;;;12.20;99.90;;;;;;6154564;23;20064;-73
2022/03/22 10:21:54;;;;;;;57.78;33.10;;;12.30;99.90;;;;;;6152281;23;20017;-73
2022/03/22 10:24:20;;;;;;;53.83;31.25;;;12.40;99.90;;;;;;6152577;23;20438;-73
2022/03/22 10:26:47;;;;;;;59.40;31.63;;;12.50;99.90;;;;;;6151465;23;20344;-74
2022/03/22 10:29:16;;;;;;;53.03;31.63;;;12.50;99.90;;;;;;6152241;23;20025;-73
2022/03/22 10:31:43;;;;;;;50.97;30.27;;;12.50;99.90;;;;;;6152299;23;20445;-72
2022/03/22 10:34:11;;;;;;;50.10;29.52;;;12.60;99.90;;;;;;6152038;23;20370;-72
2022/03/22 10:36:39;;;;;;;50.65;29.98;;;12.70;99.90;;;;;;6130605;23;20017;-73
2022/03/22 10:39:08;;;;;;;56.38;28.90;;;12.80;99.90;;;;;;6127878;23;20322;-73
2022/03/22 10:41:45;;;;;;;48.20;28.77;;;12.80;99.90;;;;;;6153612;23;20017;-73
2022/03/22 10:44:14;;;;;;;56.05;27.20;;;12.80;99.90;;;;;;6151800;23;20013;-72
2022/03/22 10:46:42;;;;;;;46.47;26.20;;;12.80;99.90;;;;;;6153682;23;20009;-72
2022/03/22 10:49:18;;;;;;;50.70;26.98;;;12.80;99.90;;;;;;6103452;23;20024;-73
2022/03/22 10:51:46;;;;;;;43.83;26.83;;;12.90;99.90;;;;;;6151893;23;20017;-73
2022/03/22 10:54:17;;;;;;;42.75;25.52;;;12.90;99.90;;;;;;6151930;23;20261;-73
2022/03/22 10:56:52;;;;;;;45.85;24.25;;;13.00;99.90;;;;;;6151846;23;20452;-74
2022/03/22 10:59:23;;;;;;;47.25;25.35;;;13.00;99.90;;;;;;6151689;23;20025;-73
2022/03/22 11:01:50;;;;;;;42.25;26.38;;;13.10;99.90;;;;;;6127101;23;20014;-72
2022/03/22 11:04:17;;;;;;;44.20;24.80;;;13.10;99.90;;;;;;6153377;23;20009;-72
2022/03/22 11:06:47;;;;;;;50.45;25.80;;;13.20;99.90;;;;;;6151517;23;20436;-73
2022/03/22 11:09:18;;;;;;;49.72;24.08;;;13.30;99.90;;;;;;6151545;23;20029;-73
2022/03/22 11:11:44;;;;;;;43.42;24.25;;;13.30;99.90;;;;;;6127716;23;20468;-72
2022/03/22 11:14:14;;;;;;;51.63;25.42;;;13.30;99.90;;;;;;6153415;23;20405;-73
2022/03/22 11:16:41;;;;;;;40.15;25.17;;;13.40;99.90;;;;;;6152623;23;20022;-72
2022/03/22 11:19:09;;;;;;;46.95;26.08;;;13.40;99.90;;;;;;6151790;23;20017;-73
2022/03/22 11:21:38;;;;;;;43.65;26.45;;;13.50;99.90;;;;;;6151593;23;20084;-72
2022/03/22 11:24:11;;;;;;;44.30;26.75;;;13.50;99.90;;;;;;6151674;23;20055;-72
2022/03/22 11:26:45;;;;;;;49.47;28.42;;;13.60;99.90;;;;;;6152106;23;20284;-71
2022/03/22 11:29:17;;;;;;;47.08;26.60;;;13.60;99.90;;;;;;6152554;23;20108;-72
2022/03/22 11:34:09;;;;;;;40.90;25.52;;;13.60;99.90;;;;;;6149505;23;20437;-72
2022/03/22 11:34:34;;;;;;;42.45;26.63;;;13.70;99.90;;;;;;6153407;23;20337;-72
2022/03/22 11:37:09;;;;;;;47.35;26.52;;;13.70;99.90;;;;;;6151637;23;20037;-72
2022/03/22 11:42:22;;;;;;;46.78;25.52;;;13.80;99.90;;;;;;6151267;23;20024;-72
2022/03/22 11:44:59;;;;;;;43.78;26.83;;;13.90;99.90;;;;;;6151520;23;20072;-72
2022/03/22 11:47:27;;;;;;;43.33;24.83;;;13.90;99.90;;;;;;6153430;23;20264;-72
2022/03/22 11:50:02;;;;;;;43.47;26.80;;;14.10;99.90;;;;;;6152212;23;20020;-72
2022/03/22 11:52:40;;;;;;;49.08;26.15;;;14.10;99.90;;;;;;6152765;23;20041;-72
2022/03/22 11:55:09;;;;;;;47.80;26.80;;;14.10;99.90;;;;;;6151435;23;20052;-72
2022/03/22 11:57:41;;;;;;;43.72;25.77;;;14.20;99.90;;;;;;6151334;23;20009;-72
2022/03/22 12:00:07;;;;;;;48.03;27.60;;;14.20;99.90;;;;;;6151447;23;20076;-72
2022/03/22 12:02:42;;;;;;;42.55;26.55;;;14.30;99.90;;;;;;6153090;23;20529;-72
2022/03/22 12:05:08;;;;;;;46.95;25.95;;;14.30;99.90;;;;;;6150682;23;20025;-72
2022/03/22 12:07:37;;;;;;;43.60;25.88;;;14.40;99.90;;;;;;6151487;23;20023;-72
2022/03/22 12:10:08;;;;;;;42.60;26.35;;;14.40;99.90;;;;;;6152463;23;20101;-74
2022/03/22 12:12:35;;;;;;;45.65;25.95;;;14.40;99.90;;;;;;6152792;23;20021;-74
2022/03/22 12:15:07;;;;;;;44.83;25.35;;;14.50;99.90;;;;;;6151809;23;20033;-74
2022/03/22 12:17:33;;;;;;;48.85;27.45;;;14.50;99.90;;;;;;6151154;23;20021;-74
2022/03/22 12:20:04;;;;;;;44.88;26.10;;;14.60;99.90;;;;;;6150958;23;20018;-74
2022/03/22 12:22:30;;;;;;;45.17;26.55;;;14.60;99.90;;;;;;6150487;23;20482;-74
2022/03/22 12:25:01;;;;;;;41.33;24.92;;;14.70;99.90;;;;;;6151104;23;20092;-73
2022/03/22 12:27:27;;;;;;;46.40;24.48;;;14.70;99.90;;;;;;6152818;23;20021;-73
2022/03/22 12:29:56;;;;;;;44.92;25.90;;;14.80;99.90;;;;;;6176177;23;20432;-73
2022/03/22 12:32:25;;;;;;;43.85;26.05;;;14.90;99.90;;;;;;6152868;23;20009;-72
2022/03/22 12:34:52;;;;;;;47.95;25.40;;;14.90;99.90;;;;;;6151276;23;20020;-73
2022/03/22 12:37:18;;;;;;;48.25;26.00;;;15.00;99.90;;;;;;6150186;23;20124;-73
2022/03/22 12:39:45;;;;;;;52.13;25.23;;;15.00;99.90;;;;;;6151776;23;20022;-73
2022/03/22 12:42:13;;;;;;;46.65;25.20;;;15.10;99.90;;;;;;6151022;23;20026;-73
2022/03/22 12:44:40;;;;;;;50.88;24.95;;;15.20;99.90;;;;;;6126497;23;20341;-72
2022/03/22 12:47:06;;;;;;;53.20;25.60;;;15.20;99.90;;;;;;6150895;23;20388;-73
2022/03/22 12:49:34;;;;;;;54.67;25.42;;;15.20;99.90;;;;;;6150880;23;20021;-73
2022/03/22 12:52:01;;;;;;;45.13;26.20;;;15.20;99.90;;;;;;6152420;23;20014;-72
2022/03/22 12:54:35;;;;;;;45.42;25.60;;;15.30;99.90;;;;;;6150849;23;20084;-74
2022/03/22 12:57:05;;;;;;;47.75;25.48;;;15.30;99.90;;;;;;6150764;23;20369;-74
2022/03/22 12:59:30;;;;;;;44.60;24.98;;;15.30;99.90;;;;;;6126670;23;20027;-74
2022/03/22 13:01:58;;;;;;;53.85;25.45;;;15.40;99.90;;;;;;6149986;23;20092;-74
2022/03/22 13:04:31;;;;;;;41.75;23.77;;;15.40;99.90;;;;;;6151273;23;20412;-73
2022/03/22 13:07:04;;;;;;;42.42;24.92;;;15.40;99.90;;;;;;6150876;23;20024;-74
2022/03/22 13:12:16;;;;;;;45.78;25.90;;;15.60;99.90;;;;;;6149948;23;20017;-73
2022/03/22 13:15:02;;;;;;;42.13;25.55;;;15.60;99.90;;;;;;6150137;23;20049;-73
2022/03/22 13:17:49;;;;;;;45.60;24.83;;;15.70;99.90;;;;;;6175372;23;20014;-73